sensor_id;sensor_type;location;lat;lon;timestamp;temperature;humidity
82039;DHT22;71610;42.628;23.378;2024-01-07T00:00:18;20.80;37.80
82039;DHT22;71610;42.628;23.378;2024-01-07T00:02:44;20.80;37.90
82039;DHT22;71610;42.628;23.378;2024-01-07T00:05:10;20.80;37.80
82039;DHT22;71610;42.628;23.378;2024-01-07T00:07:36;20.80;37.80
82039;DHT22;71610;42.628;23.378;2024-01-07T00:10:01;20.80;37.90
82039;DHT22;71610;42.628;23.378;2024-01-07T00:12:27;20.80;37.90
82039;DHT22;71610;42.628;23.378;2024-01-07T00:14:53;20.80;37.80
82039;DHT22;71610;42.628;23.378;2024-01-07T00:17:19;20.80;37.80
82039;DHT22;71610;42.628;23.378;2024-01-07T00:19:44;20.80;37.80
82039;DHT22;71610;42.628;23.378;2024-01-07T00:22:10;20.80;37.80
82039;DHT22;71610;42.628;23.378;2024-01-07T00:24:36;20.80;37.80
82039;DHT22;71610;42.628;23.378;2024-01-07T00:27:02;20.80;37.80
82039;DHT22;71610;42.628;23.378;2024-01-07T00:29:28;20.80;37.90
82039;DHT22;71610;42.628;23.378;2024-01-07T00:31:53;20.80;37.80
82039;DHT22;71610;42.628;23.378;2024-01-07T00:34:19;20.80;37.90
82039;DHT22;71610;42.628;23.378;2024-01-07T00:36:45;20.80;37.90
82039;DHT22;71610;42.628;23.378;2024-01-07T00:39:11;20.80;37.90
82039;DHT22;71610;42.628;23.378;2024-01-07T00:41:36;20.80;37.90
82039;DHT22;71610;42.628;23.378;2024-01-07T00:44:02;20.80;37.90
82039;DHT22;71610;42.628;23.378;2024-01-07T00:46:28;20.80;37.90
82039;DHT22;71610;42.628;23.378;2024-01-07T00:48:53;20.80;37.90
82039;DHT22;71610;42.628;23.378;2024-01-07T00:51:19;20.80;37.90
82039;DHT22;71610;42.628;23.378;2024-01-07T00:53:45;20.80;37.90
82039;DHT22;71610;42.628;23.378;2024-01-07T00:56:10;20.80;37.90
82039;DHT22;71610;42.628;23.378;2024-01-07T00:58:36;20.70;37.90
82039;DHT22;71610;42.628;23.378;2024-01-07T01:01:03;20.70;37.90
82039;DHT22;71610;42.628;23.378;2024-01-07T01:03:29;20.80;38.00
82039;DHT22;71610;42.628;23.378;2024-01-07T01:05:54;20.70;37.90
82039;DHT22;71610;42.628;23.378;2024-01-07T01:08:20;20.70;37.90
82039;DHT22;71610;42.628;23.378;2024-01-07T01:10:46;20.70;37.90
82039;DHT22;71610;42.628;23.378;2024-01-07T01:13:12;20.70;37.90
82039;DHT22;71610;42.628;23.378;2024-01-07T01:15:37;20.70;39.00
82039;DHT22;71610;42.628;23.378;2024-01-07T01:18:03;20.70;37.90
82039;DHT22;71610;42.628;23.378;2024-01-07T01:20:29;20.70;37.90
82039;DHT22;71610;42.628;23.378;2024-01-07T01:22:55;20.70;37.90
82039;DHT22;71610;42.628;23.378;2024-01-07T01:25:20;20.70;37.90
82039;DHT22;71610;42.628;23.378;2024-01-07T01:27:46;20.70;37.90
82039;DHT22;71610;42.628;23.378;2024-01-07T01:30:12;20.70;37.90
82039;DHT22;71610;42.628;23.378;2024-01-07T01:32:39;20.70;37.90
82039;DHT22;71610;42.628;23.378;2024-01-07T01:35:05;20.70;37.90
82039;DHT22;71610;42.628;23.378;2024-01-07T01:37:31;20.70;37.90
82039;DHT22;71610;42.628;23.378;2024-01-07T01:39:59;20.70;37.90
82039;DHT22;71610;42.628;23.378;2024-01-07T01:42:25;20.70;37.90
82039;DHT22;71610;42.628;23.378;2024-01-07T01:44:51;20.70;37.90
82039;DHT22;71610;42.628;23.378;2024-01-07T01:47:17;20.70;37.90
82039;DHT22;71610;42.628;23.378;2024-01-07T01:49:45;20.70;37.90
82039;DHT22;71610;42.628;23.378;2024-01-07T01:52:11;20.70;37.90
82039;DHT22;71610;42.628;23.378;2024-01-07T01:54:38;20.70;37.90
82039;DHT22;71610;42.628;23.378;2024-01-07T01:57:05;20.70;37.90
82039;DHT22;71610;42.628;23.378;2024-01-07T01:59:32;20.70;37.90
82039;DHT22;71610;42.628;23.378;2024-01-07T02:01:59;20.70;37.90
82039;DHT22;71610;42.628;23.378;2024-01-07T02:04:25;20.70;38.50
82039;DHT22;71610;42.628;23.378;2024-01-07T02:06:51;20.70;37.90
82039;DHT22;71610;42.628;23.378;2024-01-07T02:09:17;20.70;38.00
82039;DHT22;71610;42.628;23.378;2024-01-07T02:11:43;20.70;37.90
82039;DHT22;71610;42.628;23.378;2024-01-07T02:14:08;20.60;37.90
82039;DHT22;71610;42.628;23.378;2024-01-07T02:16:34;20.70;38.00
82039;DHT22;71610;42.628;23.378;2024-01-07T02:19:00;20.70;38.00
82039;DHT22;71610;42.628;23.378;2024-01-07T02:21:26;20.70;38.00
82039;DHT22;71610;42.628;23.378;2024-01-07T02:23:51;20.70;38.00
82039;DHT22;71610;42.628;23.378;2024-01-07T02:26:17;20.70;38.00
82039;DHT22;71610;42.628;23.378;2024-01-07T02:28:43;20.70;38.00
82039;DHT22;71610;42.628;23.378;2024-01-07T02:31:09;20.70;38.00
82039;DHT22;71610;42.628;23.378;2024-01-07T02:33:35;20.70;38.00
82039;DHT22;71610;42.628;23.378;2024-01-07T02:36:01;20.70;38.10
82039;DHT22;71610;42.628;23.378;2024-01-07T02:38:27;20.70;38.00
82039;DHT22;71610;42.628;23.378;2024-01-07T02:40:52;20.70;38.00
82039;DHT22;71610;42.628;23.378;2024-01-07T02:43:18;20.70;38.00
82039;DHT22;71610;42.628;23.378;2024-01-07T02:45:44;20.70;38.10
82039;DHT22;71610;42.628;23.378;2024-01-07T02:48:09;20.60;38.00
82039;DHT22;71610;42.628;23.378;2024-01-07T02:50:35;20.60;38.00
82039;DHT22;71610;42.628;23.378;2024-01-07T02:53:01;20.60;38.00
82039;DHT22;71610;42.628;23.378;2024-01-07T02:55:26;20.60;38.00
82039;DHT22;71610;42.628;23.378;2024-01-07T02:57:52;20.60;38.00
82039;DHT22;71610;42.628;23.378;2024-01-07T03:00:18;20.60;38.00
82039;DHT22;71610;42.628;23.378;2024-01-07T03:02:44;20.60;38.00
82039;DHT22;71610;42.628;23.378;2024-01-07T03:05:09;20.70;38.10
82039;DHT22;71610;42.628;23.378;2024-01-07T03:07:37;20.60;38.10
82039;DHT22;71610;42.628;23.378;2024-01-07T03:10:05;20.60;38.00
82039;DHT22;71610;42.628;23.378;2024-01-07T03:12:30;20.60;39.10
82039;DHT22;71610;42.628;23.378;2024-01-07T03:14:56;20.60;38.00
82039;DHT22;71610;42.628;23.378;2024-01-07T03:17:22;20.60;38.00
82039;DHT22;71610;42.628;23.378;2024-01-07T03:19:49;20.60;38.10
82039;DHT22;71610;42.628;23.378;2024-01-07T03:22:15;20.60;38.00
82039;DHT22;71610;42.628;23.378;2024-01-07T03:24:41;20.60;38.00
82039;DHT22;71610;42.628;23.378;2024-01-07T03:27:07;20.60;38.00
82039;DHT22;71610;42.628;23.378;2024-01-07T03:29:33;20.60;38.00
82039;DHT22;71610;42.628;23.378;2024-01-07T03:31:59;20.60;38.00
82039;DHT22;71610;42.628;23.378;2024-01-07T03:34:24;20.60;38.00
82039;DHT22;71610;42.628;23.378;2024-01-07T03:36:50;20.60;38.00
82039;DHT22;71610;42.628;23.378;2024-01-07T03:39:16;20.60;38.00
82039;DHT22;71610;42.628;23.378;2024-01-07T03:41:42;20.60;38.10
82039;DHT22;71610;42.628;23.378;2024-01-07T03:44:08;20.60;38.10
82039;DHT22;71610;42.628;23.378;2024-01-07T03:46:34;20.60;38.10
82039;DHT22;71610;42.628;23.378;2024-01-07T03:48:59;20.60;38.10
82039;DHT22;71610;42.628;23.378;2024-01-07T03:51:25;20.60;38.10
82039;DHT22;71610;42.628;23.378;2024-01-07T03:53:51;20.60;38.10
82039;DHT22;71610;42.628;23.378;2024-01-07T03:56:18;20.60;38.10
82039;DHT22;71610;42.628;23.378;2024-01-07T03:58:44;20.60;38.10
82039;DHT22;71610;42.628;23.378;2024-01-07T04:01:10;20.60;38.10
82039;DHT22;71610;42.628;23.378;2024-01-07T04:03:40;20.60;38.20
82039;DHT22;71610;42.628;23.378;2024-01-07T04:06:07;20.60;38.10
82039;DHT22;71610;42.628;23.378;2024-01-07T04:08:33;20.60;38.20
82039;DHT22;71610;42.628;23.378;2024-01-07T04:11:02;20.60;38.10
82039;DHT22;71610;42.628;23.378;2024-01-07T04:13:27;20.60;38.20
82039;DHT22;71610;42.628;23.378;2024-01-07T04:15:53;20.60;38.20
82039;DHT22;71610;42.628;23.378;2024-01-07T04:18:19;20.60;38.20
82039;DHT22;71610;42.628;23.378;2024-01-07T04:20:44;20.60;38.20
82039;DHT22;71610;42.628;23.378;2024-01-07T04:23:10;20.60;38.20
82039;DHT22;71610;42.628;23.378;2024-01-07T04:25:36;20.60;38.30
82039;DHT22;71610;42.628;23.378;2024-01-07T04:28:02;20.60;38.30
82039;DHT22;71610;42.628;23.378;2024-01-07T04:30:28;20.60;38.20
82039;DHT22;71610;42.628;23.378;2024-01-07T04:32:54;20.60;38.30
82039;DHT22;71610;42.628;23.378;2024-01-07T04:35:19;20.60;38.30
82039;DHT22;71610;42.628;23.378;2024-01-07T04:37:45;20.60;38.30
82039;DHT22;71610;42.628;23.378;2024-01-07T04:40:11;20.50;38.20
82039;DHT22;71610;42.628;23.378;2024-01-07T04:42:37;20.50;38.20
82039;DHT22;71610;42.628;23.378;2024-01-07T04:45:03;20.50;38.30
82039;DHT22;71610;42.628;23.378;2024-01-07T04:47:31;20.50;38.30
82039;DHT22;71610;42.628;23.378;2024-01-07T04:49:57;20.50;38.30
82039;DHT22;71610;42.628;23.378;2024-01-07T04:52:24;20.50;38.30
82039;DHT22;71610;42.628;23.378;2024-01-07T04:54:51;20.50;38.30
82039;DHT22;71610;42.628;23.378;2024-01-07T04:57:17;20.60;38.40
82039;DHT22;71610;42.628;23.378;2024-01-07T04:59:42;20.50;38.30
82039;DHT22;71610;42.628;23.378;2024-01-07T05:02:08;20.50;38.30
82039;DHT22;71610;42.628;23.378;2024-01-07T05:04:35;20.50;38.30
82039;DHT22;71610;42.628;23.378;2024-01-07T05:07:01;20.50;38.30
82039;DHT22;71610;42.628;23.378;2024-01-07T05:09:27;20.50;38.30
82039;DHT22;71610;42.628;23.378;2024-01-07T05:11:52;20.50;38.30
82039;DHT22;71610;42.628;23.378;2024-01-07T05:14:18;20.50;38.40
82039;DHT22;71610;42.628;23.378;2024-01-07T05:16:44;20.50;38.30
82039;DHT22;71610;42.628;23.378;2024-01-07T05:19:09;20.50;38.30
82039;DHT22;71610;42.628;23.378;2024-01-07T05:21:35;20.50;38.40
82039;DHT22;71610;42.628;23.378;2024-01-07T05:24:01;20.50;38.40
82039;DHT22;71610;42.628;23.378;2024-01-07T05:26:26;20.50;38.30
82039;DHT22;71610;42.628;23.378;2024-01-07T05:28:52;20.50;38.40
82039;DHT22;71610;42.628;23.378;2024-01-07T05:31:18;20.50;38.40
82039;DHT22;71610;42.628;23.378;2024-01-07T05:33:45;20.50;38.40
82039;DHT22;71610;42.628;23.378;2024-01-07T05:36:14;20.50;38.40
82039;DHT22;71610;42.628;23.378;2024-01-07T05:38:43;20.50;38.40
82039;DHT22;71610;42.628;23.378;2024-01-07T05:41:08;20.50;38.40
82039;DHT22;71610;42.628;23.378;2024-01-07T05:43:35;20.50;38.40
82039;DHT22;71610;42.628;23.378;2024-01-07T05:46:01;20.50;38.40
82039;DHT22;71610;42.628;23.378;2024-01-07T05:48:29;20.50;38.40
82039;DHT22;71610;42.628;23.378;2024-01-07T05:50:54;20.50;38.40
82039;DHT22;71610;42.628;23.378;2024-01-07T05:53:20;20.50;38.40
82039;DHT22;71610;42.628;23.378;2024-01-07T05:55:46;20.40;38.40
82039;DHT22;71610;42.628;23.378;2024-01-07T05:58:11;20.40;38.40
82039;DHT22;71610;42.628;23.378;2024-01-07T06:00:38;20.40;38.40
82039;DHT22;71610;42.628;23.378;2024-01-07T06:03:03;20.40;38.40
82039;DHT22;71610;42.628;23.378;2024-01-07T06:05:30;20.40;38.40
82039;DHT22;71610;42.628;23.378;2024-01-07T06:07:56;20.40;38.40
82039;DHT22;71610;42.628;23.378;2024-01-07T06:10:22;20.50;39.60
82039;DHT22;71610;42.628;23.378;2024-01-07T06:12:47;20.40;38.40
82039;DHT22;71610;42.628;23.378;2024-01-07T06:15:13;20.50;38.50
82039;DHT22;71610;42.628;23.378;2024-01-07T06:17:39;20.40;38.40
82039;DHT22;71610;42.628;23.378;2024-01-07T06:20:05;20.40;38.40
82039;DHT22;71610;42.628;23.378;2024-01-07T06:22:31;20.40;38.40
82039;DHT22;71610;42.628;23.378;2024-01-07T06:24:57;20.40;38.40
82039;DHT22;71610;42.628;23.378;2024-01-07T06:27:22;20.40;38.40
82039;DHT22;71610;42.628;23.378;2024-01-07T06:29:48;20.40;38.40
82039;DHT22;71610;42.628;23.378;2024-01-07T06:32:14;20.40;38.50
82039;DHT22;71610;42.628;23.378;2024-01-07T06:34:39;20.40;38.50
82039;DHT22;71610;42.628;23.378;2024-01-07T06:37:05;20.40;38.50
82039;DHT22;71610;42.628;23.378;2024-01-07T06:39:33;20.40;38.50
82039;DHT22;71610;42.628;23.378;2024-01-07T06:41:59;20.40;38.50
82039;DHT22;71610;42.628;23.378;2024-01-07T06:44:25;20.40;38.50
82039;DHT22;71610;42.628;23.378;2024-01-07T06:46:51;20.40;38.50
82039;DHT22;71610;42.628;23.378;2024-01-07T06:49:17;20.40;38.50
82039;DHT22;71610;42.628;23.378;2024-01-07T06:51:43;20.40;38.50
82039;DHT22;71610;42.628;23.378;2024-01-07T06:54:09;20.40;38.50
82039;DHT22;71610;42.628;23.378;2024-01-07T06:56:34;20.40;38.50
82039;DHT22;71610;42.628;23.378;2024-01-07T06:59:00;20.40;38.60
82039;DHT22;71610;42.628;23.378;2024-01-07T07:01:26;20.40;38.50
82039;DHT22;71610;42.628;23.378;2024-01-07T07:03:51;20.40;38.50
82039;DHT22;71610;42.628;23.378;2024-01-07T07:06:17;20.40;38.50
82039;DHT22;71610;42.628;23.378;2024-01-07T07:08:43;20.40;38.60
82039;DHT22;71610;42.628;23.378;2024-01-07T07:11:09;20.40;38.50
82039;DHT22;71610;42.628;23.378;2024-01-07T07:13:35;20.40;38.50
82039;DHT22;71610;42.628;23.378;2024-01-07T07:16:00;20.40;38.50
82039;DHT22;71610;42.628;23.378;2024-01-07T07:18:26;20.40;38.50
82039;DHT22;71610;42.628;23.378;2024-01-07T07:20:52;20.40;38.50
82039;DHT22;71610;42.628;23.378;2024-01-07T07:23:18;20.40;38.50
82039;DHT22;71610;42.628;23.378;2024-01-07T07:25:44;20.40;38.60
82039;DHT22;71610;42.628;23.378;2024-01-07T07:28:09;20.40;38.50
82039;DHT22;71610;42.628;23.378;2024-01-07T07:30:35;20.40;38.50
82039;DHT22;71610;42.628;23.378;2024-01-07T07:33:02;20.40;38.60
82039;DHT22;71610;42.628;23.378;2024-01-07T07:35:28;20.40;38.50
82039;DHT22;71610;42.628;23.378;2024-01-07T07:37:54;20.40;38.50
82039;DHT22;71610;42.628;23.378;2024-01-07T07:40:20;20.40;38.50
82039;DHT22;71610;42.628;23.378;2024-01-07T07:42:46;20.40;38.50
82039;DHT22;71610;42.628;23.378;2024-01-07T07:45:12;20.40;38.50
82039;DHT22;71610;42.628;23.378;2024-01-07T07:47:38;20.40;38.50
82039;DHT22;71610;42.628;23.378;2024-01-07T07:50:07;20.40;38.50
82039;DHT22;71610;42.628;23.378;2024-01-07T07:52:33;20.40;38.50
82039;DHT22;71610;42.628;23.378;2024-01-07T07:54:58;20.40;38.50
82039;DHT22;71610;42.628;23.378;2024-01-07T07:57:24;20.40;38.50
82039;DHT22;71610;42.628;23.378;2024-01-07T07:59:50;20.40;38.50
82039;DHT22;71610;42.628;23.378;2024-01-07T08:02:16;20.40;39.60
82039;DHT22;71610;42.628;23.378;2024-01-07T08:04:43;20.40;38.50
82039;DHT22;71610;42.628;23.378;2024-01-07T08:07:09;20.40;38.50
82039;DHT22;71610;42.628;23.378;2024-01-07T08:09:35;20.40;38.50
82039;DHT22;71610;42.628;23.378;2024-01-07T08:12:05;20.40;38.50
82039;DHT22;71610;42.628;23.378;2024-01-07T08:14:31;20.40;38.50
82039;DHT22;71610;42.628;23.378;2024-01-07T08:16:58;20.40;38.50
82039;DHT22;71610;42.628;23.378;2024-01-07T08:19:23;20.40;38.50
82039;DHT22;71610;42.628;23.378;2024-01-07T08:21:49;20.40;38.50
82039;DHT22;71610;42.628;23.378;2024-01-07T08:24:15;20.40;38.50
82039;DHT22;71610;42.628;23.378;2024-01-07T08:26:41;20.40;38.50
82039;DHT22;71610;42.628;23.378;2024-01-07T08:29:06;20.40;38.50
82039;DHT22;71610;42.628;23.378;2024-01-07T08:31:32;20.40;38.50
82039;DHT22;71610;42.628;23.378;2024-01-07T08:33:58;20.40;38.50
82039;DHT22;71610;42.628;23.378;2024-01-07T08:36:24;20.40;38.50
82039;DHT22;71610;42.628;23.378;2024-01-07T08:38:50;20.40;38.50
82039;DHT22;71610;42.628;23.378;2024-01-07T08:41:16;20.40;38.50
82039;DHT22;71610;42.628;23.378;2024-01-07T08:43:42;20.40;38.50
82039;DHT22;71610;42.628;23.378;2024-01-07T08:46:07;20.40;38.50
82039;DHT22;71610;42.628;23.378;2024-01-07T08:48:33;20.40;38.50
82039;DHT22;71610;42.628;23.378;2024-01-07T08:50:59;20.40;39.60
82039;DHT22;71610;42.628;23.378;2024-01-07T08:53:25;20.40;38.50
82039;DHT22;71610;42.628;23.378;2024-01-07T08:55:51;20.40;38.50
82039;DHT22;71610;42.628;23.378;2024-01-07T08:58:17;20.40;38.50
82039;DHT22;71610;42.628;23.378;2024-01-07T09:00:43;20.40;38.50
82039;DHT22;71610;42.628;23.378;2024-01-07T09:03:09;20.40;38.50
82039;DHT22;71610;42.628;23.378;2024-01-07T09:05:36;20.40;38.50
82039;DHT22;71610;42.628;23.378;2024-01-07T09:08:02;20.40;38.50
82039;DHT22;71610;42.628;23.378;2024-01-07T09:10:28;20.40;38.50
82039;DHT22;71610;42.628;23.378;2024-01-07T09:12:53;20.40;38.60
82039;DHT22;71610;42.628;23.378;2024-01-07T09:15:20;20.40;38.50
82039;DHT22;71610;42.628;23.378;2024-01-07T09:17:46;20.40;38.50
82039;DHT22;71610;42.628;23.378;2024-01-07T09:20:12;20.40;38.50
82039;DHT22;71610;42.628;23.378;2024-01-07T09:22:38;20.40;38.50
82039;DHT22;71610;42.628;23.378;2024-01-07T09:25:05;20.40;38.60
82039;DHT22;71610;42.628;23.378;2024-01-07T09:27:32;20.40;38.50
82039;DHT22;71610;42.628;23.378;2024-01-07T09:29:58;20.40;38.60
82039;DHT22;71610;42.628;23.378;2024-01-07T09:32:23;20.40;38.60
82039;DHT22;71610;42.628;23.378;2024-01-07T09:34:49;20.40;38.60
82039;DHT22;71610;42.628;23.378;2024-01-07T09:37:16;20.40;38.50
82039;DHT22;71610;42.628;23.378;2024-01-07T09:39:42;20.40;38.50
82039;DHT22;71610;42.628;23.378;2024-01-07T09:42:16;20.40;38.50
82039;DHT22;71610;42.628;23.378;2024-01-07T09:44:42;20.40;38.60
82039;DHT22;71610;42.628;23.378;2024-01-07T09:47:14;20.40;38.60
82039;DHT22;71610;42.628;23.378;2024-01-07T09:49:41;20.40;38.60
82039;DHT22;71610;42.628;23.378;2024-01-07T09:52:09;20.40;38.60
82039;DHT22;71610;42.628;23.378;2024-01-07T09:54:38;20.40;38.70
82039;DHT22;71610;42.628;23.378;2024-01-07T09:57:06;20.40;38.60
82039;DHT22;71610;42.628;23.378;2024-01-07T09:59:32;20.40;38.60
82039;DHT22;71610;42.628;23.378;2024-01-07T10:01:58;20.40;38.60
82039;DHT22;71610;42.628;23.378;2024-01-07T10:04:25;20.40;38.70
82039;DHT22;71610;42.628;23.378;2024-01-07T10:06:51;20.40;38.60
82039;DHT22;71610;42.628;23.378;2024-01-07T10:09:19;20.40;38.60
82039;DHT22;71610;42.628;23.378;2024-01-07T10:11:47;20.40;38.60
82039;DHT22;71610;42.628;23.378;2024-01-07T10:14:13;20.40;38.60
82039;DHT22;71610;42.628;23.378;2024-01-07T10:16:39;20.40;38.60
82039;DHT22;71610;42.628;23.378;2024-01-07T10:19:05;20.40;38.70
82039;DHT22;71610;42.628;23.378;2024-01-07T10:21:33;20.40;38.70
82039;DHT22;71610;42.628;23.378;2024-01-07T10:24:09;20.40;38.70
82039;DHT22;71610;42.628;23.378;2024-01-07T10:26:39;20.40;38.70
82039;DHT22;71610;42.628;23.378;2024-01-07T10:29:06;20.40;38.70
82039;DHT22;71610;42.628;23.378;2024-01-07T10:31:34;20.30;38.60
82039;DHT22;71610;42.628;23.378;2024-01-07T10:34:00;20.30;38.60
82039;DHT22;71610;42.628;23.378;2024-01-07T10:36:26;20.40;38.70
82039;DHT22;71610;42.628;23.378;2024-01-07T10:38:52;20.40;38.70
82039;DHT22;71610;42.628;23.378;2024-01-07T10:41:21;20.40;38.70
82039;DHT22;71610;42.628;23.378;2024-01-07T10:43:48;20.40;38.70
82039;DHT22;71610;42.628;23.378;2024-01-07T10:46:15;20.40;39.80
82039;DHT22;71610;42.628;23.378;2024-01-07T10:49:00;20.40;38.70
82039;DHT22;71610;42.628;23.378;2024-01-07T10:51:34;20.40;38.70
82039;DHT22;71610;42.628;23.378;2024-01-07T10:54:00;20.40;38.70
82039;DHT22;71610;42.628;23.378;2024-01-07T10:56:35;20.40;38.70
82039;DHT22;71610;42.628;23.378;2024-01-07T10:59:04;20.40;38.70
82039;DHT22;71610;42.628;23.378;2024-01-07T11:01:30;20.30;38.70
82039;DHT22;71610;42.628;23.378;2024-01-07T11:09:23;20.40;38.70
82039;DHT22;71610;42.628;23.378;2024-01-07T11:11:52;20.40;38.70
82039;DHT22;71610;42.628;23.378;2024-01-07T11:17:03;20.40;38.70
82039;DHT22;71610;42.628;23.378;2024-01-07T11:19:29;20.30;38.70
82039;DHT22;71610;42.628;23.378;2024-01-07T11:22:26;20.30;38.70
82039;DHT22;71610;42.628;23.378;2024-01-07T11:24:59;20.40;38.80
82039;DHT22;71610;42.628;23.378;2024-01-07T11:27:27;20.30;38.70
82039;DHT22;71610;42.628;23.378;2024-01-07T11:30:20;20.30;38.70
82039;DHT22;71610;42.628;23.378;2024-01-07T11:32:46;20.30;38.70
82039;DHT22;71610;42.628;23.378;2024-01-07T11:35:13;20.30;38.70
82039;DHT22;71610;42.628;23.378;2024-01-07T11:37:38;20.30;38.70
82039;DHT22;71610;42.628;23.378;2024-01-07T11:40:06;20.30;38.70
82039;DHT22;71610;42.628;23.378;2024-01-07T11:42:32;20.30;38.70
82039;DHT22;71610;42.628;23.378;2024-01-07T11:44:58;20.30;38.80
82039;DHT22;71610;42.628;23.378;2024-01-07T11:47:24;20.30;38.70
82039;DHT22;71610;42.628;23.378;2024-01-07T11:49:53;20.30;38.80
82039;DHT22;71610;42.628;23.378;2024-01-07T11:52:20;20.30;38.80
82039;DHT22;71610;42.628;23.378;2024-01-07T11:54:47;20.30;38.80
82039;DHT22;71610;42.628;23.378;2024-01-07T11:57:13;20.30;38.80
82039;DHT22;71610;42.628;23.378;2024-01-07T11:59:39;20.30;38.80
82039;DHT22;71610;42.628;23.378;2024-01-07T12:02:05;20.30;38.80
82039;DHT22;71610;42.628;23.378;2024-01-07T12:04:32;20.30;38.80
82039;DHT22;71610;42.628;23.378;2024-01-07T12:06:57;20.30;38.80
82039;DHT22;71610;42.628;23.378;2024-01-07T12:09:24;20.30;38.80
82039;DHT22;71610;42.628;23.378;2024-01-07T12:11:50;20.30;38.90
82039;DHT22;71610;42.628;23.378;2024-01-07T12:14:16;20.30;38.80
82039;DHT22;71610;42.628;23.378;2024-01-07T12:16:42;20.30;38.90
82039;DHT22;71610;42.628;23.378;2024-01-07T12:19:08;20.30;38.90
82039;DHT22;71610;42.628;23.378;2024-01-07T12:21:35;20.30;38.90
82039;DHT22;71610;42.628;23.378;2024-01-07T12:24:01;20.30;38.80
82039;DHT22;71610;42.628;23.378;2024-01-07T12:26:27;20.30;38.90
82039;DHT22;71610;42.628;23.378;2024-01-07T12:28:55;20.30;38.90
82039;DHT22;71610;42.628;23.378;2024-01-07T12:31:21;20.30;38.90
82039;DHT22;71610;42.628;23.378;2024-01-07T12:33:47;20.30;38.90
82039;DHT22;71610;42.628;23.378;2024-01-07T12:36:13;20.30;38.90
82039;DHT22;71610;42.628;23.378;2024-01-07T12:38:40;20.30;38.90
82039;DHT22;71610;42.628;23.378;2024-01-07T12:41:06;20.30;38.90
82039;DHT22;71610;42.628;23.378;2024-01-07T12:43:33;20.30;38.90
82039;DHT22;71610;42.628;23.378;2024-01-07T12:45:58;20.30;38.90
82039;DHT22;71610;42.628;23.378;2024-01-07T12:48:30;20.20;38.90
82039;DHT22;71610;42.628;23.378;2024-01-07T12:50:56;20.20;40.10
82039;DHT22;71610;42.628;23.378;2024-01-07T12:53:22;20.20;38.90
82039;DHT22;71610;42.628;23.378;2024-01-07T12:55:48;20.20;38.90
82039;DHT22;71610;42.628;23.378;2024-01-07T12:58:14;20.20;38.90
82039;DHT22;71610;42.628;23.378;2024-01-07T13:00:40;20.20;40.10
82039;DHT22;71610;42.628;23.378;2024-01-07T13:03:06;20.20;39.00
82039;DHT22;71610;42.628;23.378;2024-01-07T13:05:34;20.20;39.00
82039;DHT22;71610;42.628;23.378;2024-01-07T13:07:59;20.20;39.00
82039;DHT22;71610;42.628;23.378;2024-01-07T13:10:25;20.20;39.00
82039;DHT22;71610;42.628;23.378;2024-01-07T13:12:52;20.20;39.00
82039;DHT22;71610;42.628;23.378;2024-01-07T13:15:18;20.20;39.30
82039;DHT22;71610;42.628;23.378;2024-01-07T13:17:44;20.20;39.00
82039;DHT22;71610;42.628;23.378;2024-01-07T13:20:10;20.20;39.00
82039;DHT22;71610;42.628;23.378;2024-01-07T13:22:40;20.20;39.10
82039;DHT22;71610;42.628;23.378;2024-01-07T13:25:06;20.20;39.00
82039;DHT22;71610;42.628;23.378;2024-01-07T13:27:32;20.20;39.10
82039;DHT22;71610;42.628;23.378;2024-01-07T13:29:59;20.20;39.10
82039;DHT22;71610;42.628;23.378;2024-01-07T13:32:24;20.20;39.10
82039;DHT22;71610;42.628;23.378;2024-01-07T13:34:50;20.20;39.10
82039;DHT22;71610;42.628;23.378;2024-01-07T13:37:16;20.20;39.10
82039;DHT22;71610;42.628;23.378;2024-01-07T13:39:41;20.10;39.10
82039;DHT22;71610;42.628;23.378;2024-01-07T13:42:08;20.10;39.10
82039;DHT22;71610;42.628;23.378;2024-01-07T13:44:33;20.20;39.10
82039;DHT22;71610;42.628;23.378;2024-01-07T13:47:00;20.20;39.10
82039;DHT22;71610;42.628;23.378;2024-01-07T13:49:30;20.20;39.10
82039;DHT22;71610;42.628;23.378;2024-01-07T13:51:56;20.20;39.20
82039;DHT22;71610;42.628;23.378;2024-01-07T13:54:22;20.20;39.20
82039;DHT22;71610;42.628;23.378;2024-01-07T13:56:47;20.20;39.20
82039;DHT22;71610;42.628;23.378;2024-01-07T13:59:13;20.20;39.20
82039;DHT22;71610;42.628;23.378;2024-01-07T14:01:39;20.10;39.20
82039;DHT22;71610;42.628;23.378;2024-01-07T14:04:05;20.20;39.20
82039;DHT22;71610;42.628;23.378;2024-01-07T14:06:30;20.10;39.20
82039;DHT22;71610;42.628;23.378;2024-01-07T14:08:57;20.20;39.20
82039;DHT22;71610;42.628;23.378;2024-01-07T14:11:23;20.20;39.20
82039;DHT22;71610;42.628;23.378;2024-01-07T14:13:49;20.20;39.20
82039;DHT22;71610;42.628;23.378;2024-01-07T14:16:15;20.10;39.20
82039;DHT22;71610;42.628;23.378;2024-01-07T14:18:40;20.10;39.20
82039;DHT22;71610;42.628;23.378;2024-01-07T14:21:06;20.10;39.30
82039;DHT22;71610;42.628;23.378;2024-01-07T14:23:35;20.10;39.30
82039;DHT22;71610;42.628;23.378;2024-01-07T14:26:01;20.10;39.30
82039;DHT22;71610;42.628;23.378;2024-01-07T14:28:28;20.10;39.30
82039;DHT22;71610;42.628;23.378;2024-01-07T14:30:53;20.10;39.30
82039;DHT22;71610;42.628;23.378;2024-01-07T14:33:19;20.10;39.30
82039;DHT22;71610;42.628;23.378;2024-01-07T14:35:45;20.10;39.30
82039;DHT22;71610;42.628;23.378;2024-01-07T14:38:10;20.10;39.30
82039;DHT22;71610;42.628;23.378;2024-01-07T14:40:36;20.10;39.30
82039;DHT22;71610;42.628;23.378;2024-01-07T14:43:02;20.10;39.40
82039;DHT22;71610;42.628;23.378;2024-01-07T14:45:28;20.10;39.30
82039;DHT22;71610;42.628;23.378;2024-01-07T14:47:54;20.10;39.40
82039;DHT22;71610;42.628;23.378;2024-01-07T14:50:20;20.10;39.40
82039;DHT22;71610;42.628;23.378;2024-01-07T14:52:46;20.10;39.40
82039;DHT22;71610;42.628;23.378;2024-01-07T14:55:13;20.10;39.40
82039;DHT22;71610;42.628;23.378;2024-01-07T14:57:40;20.10;39.40
82039;DHT22;71610;42.628;23.378;2024-01-07T15:00:06;20.10;39.40
82039;DHT22;71610;42.628;23.378;2024-01-07T15:02:34;20.10;39.40
82039;DHT22;71610;42.628;23.378;2024-01-07T15:05:00;20.10;39.40
82039;DHT22;71610;42.628;23.378;2024-01-07T15:07:26;20.10;39.40
82039;DHT22;71610;42.628;23.378;2024-01-07T15:09:52;20.10;39.40
82039;DHT22;71610;42.628;23.378;2024-01-07T15:12:18;20.10;39.40
82039;DHT22;71610;42.628;23.378;2024-01-07T15:14:44;20.10;39.40
82039;DHT22;71610;42.628;23.378;2024-01-07T15:17:10;20.10;39.50